sensor_id;sensor_type;location;lat;lon;timestamp;P1;durP1;ratioP1;P2;durP2;ratioP2
4638;SDS011;2332;38.646;-9.154;2022-10-14T00:01:25;0.80;;;0.80;;
4638;SDS011;2332;38.646;-9.154;2022-10-14T00:03:52;0.60;;;0.60;;
4638;SDS011;2332;38.646;-9.154;2022-10-14T00:06:19;0.97;;;0.80;;
4638;SDS011;2332;38.646;-9.154;2022-10-14T00:08:47;0.70;;;0.70;;
4638;SDS011;2332;38.646;-9.154;2022-10-14T00:11:14;1.83;;;0.70;;
4638;SDS011;2332;38.646;-9.154;2022-10-14T00:13:41;1.10;;;0.90;;
4638;SDS011;2332;38.646;-9.154;2022-10-14T00:16:13;0.80;;;0.80;;
4638;SDS011;2332;38.646;-9.154;2022-10-14T00:18:47;1.73;;;0.83;;
4638;SDS011;2332;38.646;-9.154;2022-10-14T00:21:13;0.60;;;0.60;;
4638;SDS011;2332;38.646;-9.154;2022-10-14T00:23:39;0.70;;;0.70;;
4638;SDS011;2332;38.646;-9.154;2022-10-14T00:26:05;0.67;;;0.67;;
4638;SDS011;2332;38.646;-9.154;2022-10-14T00:28:31;1.03;;;0.80;;
4638;SDS011;2332;38.646;-9.154;2022-10-14T00:31:00;0.70;;;0.70;;
4638;SDS011;2332;38.646;-9.154;2022-10-14T00:33:27;1.80;;;0.80;;
4638;SDS011;2332;38.646;-9.154;2022-10-14T00:35:53;1.80;;;1.00;;
4638;SDS011;2332;38.646;-9.154;2022-10-14T00:38:20;1.10;;;0.90;;
4638;SDS011;2332;38.646;-9.154;2022-10-14T00:40:46;1.13;;;0.90;;
4638;SDS011;2332;38.646;-9.154;2022-10-14T00:43:11;0.80;;;0.80;;
4638;SDS011;2332;38.646;-9.154;2022-10-14T00:45:38;1.57;;;0.83;;
4638;SDS011;2332;38.646;-9.154;2022-10-14T00:48:04;0.83;;;0.70;;
4638;SDS011;2332;38.646;-9.154;2022-10-14T00:50:34;0.80;;;0.80;;
4638;SDS011;2332;38.646;-9.154;2022-10-14T00:52:59;0.80;;;0.80;;
4638;SDS011;2332;38.646;-9.154;2022-10-14T00:55:27;0.80;;;0.80;;
4638;SDS011;2332;38.646;-9.154;2022-10-14T00:57:53;0.70;;;0.70;;
4638;SDS011;2332;38.646;-9.154;2022-10-14T01:00:19;1.00;;;0.90;;
4638;SDS011;2332;38.646;-9.154;2022-10-14T01:02:45;0.97;;;0.97;;
4638;SDS011;2332;38.646;-9.154;2022-10-14T01:05:12;0.80;;;0.80;;
4638;SDS011;2332;38.646;-9.154;2022-10-14T01:13:19;1.13;;;1.13;;
4638;SDS011;2332;38.646;-9.154;2022-10-14T01:16:16;1.00;;;1.00;;
4638;SDS011;2332;38.646;-9.154;2022-10-14T01:21:42;1.27;;;1.00;;
4638;SDS011;2332;38.646;-9.154;2022-10-14T01:24:17;0.90;;;0.90;;
4638;SDS011;2332;38.646;-9.154;2022-10-14T01:26:52;1.20;;;1.10;;
4638;SDS011;2332;38.646;-9.154;2022-10-14T01:32:29;2.57;;;1.20;;
4638;SDS011;2332;38.646;-9.154;2022-10-14T01:35:07;0.70;;;0.70;;
4638;SDS011;2332;38.646;-9.154;2022-10-14T01:37:56;1.67;;;1.00;;
4638;SDS011;2332;38.646;-9.154;2022-10-14T01:43:28;0.93;;;0.90;;
4638;SDS011;2332;38.646;-9.154;2022-10-14T01:45:55;2.17;;;1.13;;
4638;SDS011;2332;38.646;-9.154;2022-10-14T01:48:23;1.30;;;1.20;;
4638;SDS011;2332;38.646;-9.154;2022-10-14T01:50:52;3.03;;;1.10;;
4638;SDS011;2332;38.646;-9.154;2022-10-14T01:53:20;1.10;;;1.10;;
4638;SDS011;2332;38.646;-9.154;2022-10-14T01:55:48;2.50;;;1.10;;
4638;SDS011;2332;38.646;-9.154;2022-10-14T01:58:15;4.13;;;1.00;;
4638;SDS011;2332;38.646;-9.154;2022-10-14T02:00:42;1.20;;;1.20;;
4638;SDS011;2332;38.646;-9.154;2022-10-14T02:03:11;1.30;;;1.20;;
4638;SDS011;2332;38.646;-9.154;2022-10-14T02:05:42;1.27;;;1.27;;
4638;SDS011;2332;38.646;-9.154;2022-10-14T02:11:08;2.63;;;1.43;;
4638;SDS011;2332;38.646;-9.154;2022-10-14T02:13:47;1.10;;;1.10;;
4638;SDS011;2332;38.646;-9.154;2022-10-14T02:16:37;2.10;;;1.30;;
4638;SDS011;2332;38.646;-9.154;2022-10-14T02:21:38;1.83;;;1.20;;
4638;SDS011;2332;38.646;-9.154;2022-10-14T02:24:07;1.70;;;1.60;;
4638;SDS011;2332;38.646;-9.154;2022-10-14T02:26:37;2.93;;;1.83;;
4638;SDS011;2332;38.646;-9.154;2022-10-14T02:29:03;7.73;;;2.10;;
4638;SDS011;2332;38.646;-9.154;2022-10-14T02:31:29;7.60;;;2.20;;
4638;SDS011;2332;38.646;-9.154;2022-10-14T02:33:57;4.27;;;2.00;;
4638;SDS011;2332;38.646;-9.154;2022-10-14T02:36:24;1.60;;;1.50;;
4638;SDS011;2332;38.646;-9.154;2022-10-14T02:38:51;1.73;;;1.50;;
4638;SDS011;2332;38.646;-9.154;2022-10-14T02:41:18;1.50;;;1.40;;
4638;SDS011;2332;38.646;-9.154;2022-10-14T02:43:45;3.17;;;1.90;;
4638;SDS011;2332;38.646;-9.154;2022-10-14T02:46:10;2.50;;;1.10;;
4638;SDS011;2332;38.646;-9.154;2022-10-14T02:48:36;1.60;;;1.50;;
4638;SDS011;2332;38.646;-9.154;2022-10-14T02:51:04;2.30;;;1.73;;
4638;SDS011;2332;38.646;-9.154;2022-10-14T02:53:30;4.83;;;1.57;;
4638;SDS011;2332;38.646;-9.154;2022-10-14T02:55:56;1.70;;;1.70;;
4638;SDS011;2332;38.646;-9.154;2022-10-14T02:58:21;1.77;;;1.67;;
4638;SDS011;2332;38.646;-9.154;2022-10-14T03:00:47;2.87;;;1.77;;
4638;SDS011;2332;38.646;-9.154;2022-10-14T03:03:13;2.30;;;1.73;;
4638;SDS011;2332;38.646;-9.154;2022-10-14T03:05:39;3.37;;;1.80;;
4638;SDS011;2332;38.646;-9.154;2022-10-14T03:08:04;1.70;;;1.60;;
4638;SDS011;2332;38.646;-9.154;2022-10-14T03:10:30;2.00;;;1.90;;
4638;SDS011;2332;38.646;-9.154;2022-10-14T03:12:55;2.23;;;1.97;;
4638;SDS011;2332;38.646;-9.154;2022-10-14T03:15:21;2.00;;;2.00;;
4638;SDS011;2332;38.646;-9.154;2022-10-14T03:17:46;2.50;;;2.30;;
4638;SDS011;2332;38.646;-9.154;2022-10-14T03:20:17;1.50;;;1.50;;
4638;SDS011;2332;38.646;-9.154;2022-10-14T03:22:43;1.77;;;1.73;;
4638;SDS011;2332;38.646;-9.154;2022-10-14T03:25:08;1.80;;;1.70;;
4638;SDS011;2332;38.646;-9.154;2022-10-14T03:27:34;2.00;;;1.90;;
4638;SDS011;2332;38.646;-9.154;2022-10-14T03:30:02;2.30;;;1.87;;
4638;SDS011;2332;38.646;-9.154;2022-10-14T03:32:28;2.20;;;2.10;;
4638;SDS011;2332;38.646;-9.154;2022-10-14T03:34:53;4.33;;;2.20;;
4638;SDS011;2332;38.646;-9.154;2022-10-14T03:37:19;2.10;;;1.80;;
4638;SDS011;2332;38.646;-9.154;2022-10-14T03:39:45;2.93;;;1.70;;
4638;SDS011;2332;38.646;-9.154;2022-10-14T03:42:10;2.33;;;2.23;;
4638;SDS011;2332;38.646;-9.154;2022-10-14T03:44:36;1.90;;;1.80;;
4638;SDS011;2332;38.646;-9.154;2022-10-14T03:47:01;2.23;;;1.90;;
4638;SDS011;2332;38.646;-9.154;2022-10-14T03:49:27;1.90;;;1.70;;
4638;SDS011;2332;38.646;-9.154;2022-10-14T03:51:52;2.40;;;1.93;;
4638;SDS011;2332;38.646;-9.154;2022-10-14T03:54:18;1.53;;;1.53;;
4638;SDS011;2332;38.646;-9.154;2022-10-14T03:56:43;2.40;;;2.20;;
4638;SDS011;2332;38.646;-9.154;2022-10-14T03:59:09;2.97;;;1.70;;
4638;SDS011;2332;38.646;-9.154;2022-10-14T04:01:35;1.60;;;1.60;;
4638;SDS011;2332;38.646;-9.154;2022-10-14T04:04:00;1.70;;;1.60;;
4638;SDS011;2332;38.646;-9.154;2022-10-14T04:06:26;1.30;;;1.30;;
4638;SDS011;2332;38.646;-9.154;2022-10-14T04:08:51;1.87;;;1.77;;
4638;SDS011;2332;38.646;-9.154;2022-10-14T04:11:17;2.07;;;1.97;;
4638;SDS011;2332;38.646;-9.154;2022-10-14T04:13:42;1.90;;;1.80;;
4638;SDS011;2332;38.646;-9.154;2022-10-14T04:16:09;2.37;;;2.27;;
4638;SDS011;2332;38.646;-9.154;2022-10-14T04:18:36;6.10;;;2.77;;
4638;SDS011;2332;38.646;-9.154;2022-10-14T04:21:02;3.83;;;3.43;;
4638;SDS011;2332;38.646;-9.154;2022-10-14T04:23:30;3.20;;;3.00;;
4638;SDS011;2332;38.646;-9.154;2022-10-14T04:25:55;3.53;;;3.10;;
4638;SDS011;2332;38.646;-9.154;2022-10-14T04:28:21;3.70;;;3.40;;
4638;SDS011;2332;38.646;-9.154;2022-10-14T04:30:47;4.20;;;3.63;;
4638;SDS011;2332;38.646;-9.154;2022-10-14T04:33:15;3.97;;;3.60;;
4638;SDS011;2332;38.646;-9.154;2022-10-14T04:35:41;6.97;;;3.97;;
4638;SDS011;2332;38.646;-9.154;2022-10-14T04:38:06;4.10;;;3.80;;
4638;SDS011;2332;38.646;-9.154;2022-10-14T04:40:32;7.40;;;3.90;;
4638;SDS011;2332;38.646;-9.154;2022-10-14T04:42:58;5.70;;;3.47;;
4638;SDS011;2332;38.646;-9.154;2022-10-14T04:45:23;4.30;;;3.57;;
4638;SDS011;2332;38.646;-9.154;2022-10-14T04:47:50;4.60;;;4.23;;
4638;SDS011;2332;38.646;-9.154;2022-10-14T04:50:16;4.23;;;3.83;;
4638;SDS011;2332;38.646;-9.154;2022-10-14T04:52:45;4.30;;;3.90;;
4638;SDS011;2332;38.646;-9.154;2022-10-14T04:55:11;5.73;;;3.90;;
4638;SDS011;2332;38.646;-9.154;2022-10-14T04:57:36;3.00;;;2.80;;
4638;SDS011;2332;38.646;-9.154;2022-10-14T05:00:04;3.77;;;3.43;;
4638;SDS011;2332;38.646;-9.154;2022-10-14T05:02:30;3.77;;;3.47;;
4638;SDS011;2332;38.646;-9.154;2022-10-14T05:04:56;4.10;;;3.80;;
4638;SDS011;2332;38.646;-9.154;2022-10-14T05:07:21;6.97;;;3.60;;
4638;SDS011;2332;38.646;-9.154;2022-10-14T05:09:47;6.33;;;3.87;;
4638;SDS011;2332;38.646;-9.154;2022-10-14T05:12:13;3.67;;;3.37;;
4638;SDS011;2332;38.646;-9.154;2022-10-14T05:14:39;7.23;;;3.80;;
4638;SDS011;2332;38.646;-9.154;2022-10-14T05:17:04;5.53;;;5.03;;
4638;SDS011;2332;38.646;-9.154;2022-10-14T05:19:30;6.27;;;4.37;;
4638;SDS011;2332;38.646;-9.154;2022-10-14T05:21:55;4.23;;;3.93;;
4638;SDS011;2332;38.646;-9.154;2022-10-14T05:24:21;5.20;;;4.70;;
4638;SDS011;2332;38.646;-9.154;2022-10-14T05:26:46;4.80;;;4.40;;
4638;SDS011;2332;38.646;-9.154;2022-10-14T05:29:12;4.23;;;3.87;;
4638;SDS011;2332;38.646;-9.154;2022-10-14T05:31:38;4.57;;;4.17;;
4638;SDS011;2332;38.646;-9.154;2022-10-14T05:34:03;7.03;;;4.10;;
4638;SDS011;2332;38.646;-9.154;2022-10-14T05:36:29;4.73;;;4.03;;
4638;SDS011;2332;38.646;-9.154;2022-10-14T05:38:54;4.93;;;4.43;;
4638;SDS011;2332;38.646;-9.154;2022-10-14T05:41:23;6.60;;;3.93;;
4638;SDS011;2332;38.646;-9.154;2022-10-14T05:43:49;4.07;;;3.70;;
4638;SDS011;2332;38.646;-9.154;2022-10-14T05:46:15;7.63;;;3.90;;
4638;SDS011;2332;38.646;-9.154;2022-10-14T05:48:40;5.87;;;4.07;;
4638;SDS011;2332;38.646;-9.154;2022-10-14T05:51:06;7.90;;;4.00;;
4638;SDS011;2332;38.646;-9.154;2022-10-14T05:53:32;6.30;;;4.57;;
4638;SDS011;2332;38.646;-9.154;2022-10-14T05:56:02;5.87;;;4.53;;
4638;SDS011;2332;38.646;-9.154;2022-10-14T05:58:29;12.43;;;5.10;;
4638;SDS011;2332;38.646;-9.154;2022-10-14T06:00:57;7.13;;;4.30;;
4638;SDS011;2332;38.646;-9.154;2022-10-14T06:03:27;6.40;;;4.60;;
4638;SDS011;2332;38.646;-9.154;2022-10-14T06:05:53;9.17;;;4.80;;
4638;SDS011;2332;38.646;-9.154;2022-10-14T06:08:19;4.70;;;4.30;;
4638;SDS011;2332;38.646;-9.154;2022-10-14T06:10:45;6.50;;;4.50;;
4638;SDS011;2332;38.646;-9.154;2022-10-14T06:13:10;7.03;;;4.90;;
4638;SDS011;2332;38.646;-9.154;2022-10-14T06:15:36;5.43;;;4.93;;
4638;SDS011;2332;38.646;-9.154;2022-10-14T06:18:02;7.07;;;4.80;;
4638;SDS011;2332;38.646;-9.154;2022-10-14T06:20:28;9.90;;;5.50;;
4638;SDS011;2332;38.646;-9.154;2022-10-14T06:22:53;15.20;;;11.73;;
4638;SDS011;2332;38.646;-9.154;2022-10-14T06:25:19;12.73;;;7.77;;
4638;SDS011;2332;38.646;-9.154;2022-10-14T06:27:45;10.43;;;8.07;;
4638;SDS011;2332;38.646;-9.154;2022-10-14T06:30:10;15.07;;;9.17;;
4638;SDS011;2332;38.646;-9.154;2022-10-14T06:32:36;10.50;;;7.93;;
4638;SDS011;2332;38.646;-9.154;2022-10-14T06:35:02;9.80;;;8.80;;
4638;SDS011;2332;38.646;-9.154;2022-10-14T06:37:27;10.77;;;9.07;;
4638;SDS011;2332;38.646;-9.154;2022-10-14T06:39:53;13.70;;;9.50;;
4638;SDS011;2332;38.646;-9.154;2022-10-14T06:42:18;11.80;;;9.50;;
4638;SDS011;2332;38.646;-9.154;2022-10-14T06:44:44;11.60;;;9.30;;
4638;SDS011;2332;38.646;-9.154;2022-10-14T06:47:09;10.10;;;8.97;;
4638;SDS011;2332;38.646;-9.154;2022-10-14T06:49:35;8.70;;;7.80;;
4638;SDS011;2332;38.646;-9.154;2022-10-14T06:52:00;8.97;;;8.13;;
4638;SDS011;2332;38.646;-9.154;2022-10-14T06:54:26;13.47;;;10.80;;
4638;SDS011;2332;38.646;-9.154;2022-10-14T06:56:54;10.80;;;7.83;;
4638;SDS011;2332;38.646;-9.154;2022-10-14T06:59:20;14.13;;;8.60;;
4638;SDS011;2332;38.646;-9.154;2022-10-14T07:01:46;9.40;;;8.43;;
4638;SDS011;2332;38.646;-9.154;2022-10-14T07:04:11;11.73;;;9.00;;
4638;SDS011;2332;38.646;-9.154;2022-10-14T07:06:37;14.30;;;10.30;;
4638;SDS011;2332;38.646;-9.154;2022-10-14T07:09:03;19.33;;;10.80;;
4638;SDS011;2332;38.646;-9.154;2022-10-14T07:11:29;12.93;;;11.20;;
4638;SDS011;2332;38.646;-9.154;2022-10-14T07:13:54;25.23;;;11.93;;
4638;SDS011;2332;38.646;-9.154;2022-10-14T07:16:20;20.37;;;13.00;;
4638;SDS011;2332;38.646;-9.154;2022-10-14T07:18:46;15.67;;;11.70;;
4638;SDS011;2332;38.646;-9.154;2022-10-14T07:21:12;15.90;;;12.23;;
4638;SDS011;2332;38.646;-9.154;2022-10-14T07:23:38;17.37;;;11.77;;
4638;SDS011;2332;38.646;-9.154;2022-10-14T07:26:03;14.83;;;11.87;;
4638;SDS011;2332;38.646;-9.154;2022-10-14T07:28:29;21.53;;;12.03;;
4638;SDS011;2332;38.646;-9.154;2022-10-14T07:31:03;13.70;;;11.97;;
4638;SDS011;2332;38.646;-9.154;2022-10-14T07:33:30;18.17;;;13.50;;
4638;SDS011;2332;38.646;-9.154;2022-10-14T07:35:59;21.93;;;12.43;;
4638;SDS011;2332;38.646;-9.154;2022-10-14T07:38:27;14.20;;;12.57;;
4638;SDS011;2332;38.646;-9.154;2022-10-14T07:41:00;14.73;;;12.63;;
4638;SDS011;2332;38.646;-9.154;2022-10-14T07:43:26;17.13;;;12.33;;
4638;SDS011;2332;38.646;-9.154;2022-10-14T07:45:52;20.67;;;12.23;;
4638;SDS011;2332;38.646;-9.154;2022-10-14T07:48:25;13.83;;;11.37;;
4638;SDS011;2332;38.646;-9.154;2022-10-14T07:50:53;15.73;;;11.43;;
4638;SDS011;2332;38.646;-9.154;2022-10-14T07:53:19;13.13;;;11.70;;
4638;SDS011;2332;38.646;-9.154;2022-10-14T07:55:45;16.93;;;11.63;;
4638;SDS011;2332;38.646;-9.154;2022-10-14T07:58:17;12.13;;;10.93;;
4638;SDS011;2332;38.646;-9.154;2022-10-14T08:00:49;13.13;;;10.53;;
4638;SDS011;2332;38.646;-9.154;2022-10-14T08:03:15;13.50;;;11.93;;
4638;SDS011;2332;38.646;-9.154;2022-10-14T08:05:41;11.47;;;9.33;;
4638;SDS011;2332;38.646;-9.154;2022-10-14T08:08:07;12.70;;;11.30;;
4638;SDS011;2332;38.646;-9.154;2022-10-14T08:10:33;10.13;;;9.03;;
4638;SDS011;2332;38.646;-9.154;2022-10-14T08:12:59;14.20;;;9.50;;
4638;SDS011;2332;38.646;-9.154;2022-10-14T08:15:25;10.73;;;9.00;;
4638;SDS011;2332;38.646;-9.154;2022-10-14T08:17:53;9.50;;;8.60;;
4638;SDS011;2332;38.646;-9.154;2022-10-14T08:20:19;18.10;;;8.43;;
4638;SDS011;2332;38.646;-9.154;2022-10-14T08:22:45;9.43;;;8.63;;
4638;SDS011;2332;38.646;-9.154;2022-10-14T08:25:10;10.10;;;8.40;;
4638;SDS011;2332;38.646;-9.154;2022-10-14T08:27:36;10.93;;;8.70;;
4638;SDS011;2332;38.646;-9.154;2022-10-14T08:30:02;21.03;;;8.60;;
4638;SDS011;2332;38.646;-9.154;2022-10-14T08:32:28;15.03;;;9.60;;
4638;SDS011;2332;38.646;-9.154;2022-10-14T08:34:53;20.33;;;8.00;;
4638;SDS011;2332;38.646;-9.154;2022-10-14T08:37:20;11.07;;;8.40;;
4638;SDS011;2332;38.646;-9.154;2022-10-14T08:39:46;10.10;;;9.20;;
4638;SDS011;2332;38.646;-9.154;2022-10-14T08:45:16;8.60;;;7.70;;
4638;SDS011;2332;38.646;-9.154;2022-10-14T08:47:41;9.60;;;7.73;;
4638;SDS011;2332;38.646;-9.154;2022-10-14T08:52:49;9.00;;;8.20;;
4638;SDS011;2332;38.646;-9.154;2022-10-14T08:57:59;9.30;;;7.70;;
4638;SDS011;2332;38.646;-9.154;2022-10-14T09:00:31;10.43;;;5.93;;
4638;SDS011;2332;38.646;-9.154;2022-10-14T09:02:58;9.23;;;7.63;;
4638;SDS011;2332;38.646;-9.154;2022-10-14T09:05:24;8.20;;;7.50;;
4638;SDS011;2332;38.646;-9.154;2022-10-14T09:07:51;8.70;;;7.83;;
4638;SDS011;2332;38.646;-9.154;2022-10-14T09:10:39;9.13;;;7.40;;
4638;SDS011;2332;38.646;-9.154;2022-10-14T09:13:10;12.20;;;8.57;;
4638;SDS011;2332;38.646;-9.154;2022-10-14T09:18:57;10.60;;;9.50;;
4638;SDS011;2332;38.646;-9.154;2022-10-14T09:21:33;12.03;;;10.37;;
4638;SDS011;2332;38.646;-9.154;2022-10-14T09:24:10;13.37;;;9.57;;
4638;SDS011;2332;38.646;-9.154;2022-10-14T09:26:38;12.37;;;10.03;;
4638;SDS011;2332;38.646;-9.154;2022-10-14T09:29:18;11.40;;;10.00;;
4638;SDS011;2332;38.646;-9.154;2022-10-14T09:31:50;12.80;;;9.80;;
4638;SDS011;2332;38.646;-9.154;2022-10-14T09:34:17;9.87;;;8.87;;
4638;SDS011;2332;38.646;-9.154;2022-10-14T09:36:48;13.30;;;8.33;;
4638;SDS011;2332;38.646;-9.154;2022-10-14T09:39:14;8.93;;;8.03;;
4638;SDS011;2332;38.646;-9.154;2022-10-14T09:41:44;8.33;;;7.63;;
4638;SDS011;2332;38.646;-9.154;2022-10-14T09:46:51;9.10;;;8.20;;
4638;SDS011;2332;38.646;-9.154;2022-10-14T09:49:38;12.43;;;8.07;;
4638;SDS011;2332;38.646;-9.154;2022-10-14T09:52:06;8.50;;;7.70;;
4638;SDS011;2332;38.646;-9.154;2022-10-14T09:54:32;8.17;;;7.47;;
4638;SDS011;2332;38.646;-9.154;2022-10-14T09:56:59;8.50;;;7.43;;
4638;SDS011;2332;38.646;-9.154;2022-10-14T09:59:27;8.43;;;7.73;;
4638;SDS011;2332;38.646;-9.154;2022-10-14T10:01:54;7.53;;;6.83;;
4638;SDS011;2332;38.646;-9.154;2022-10-14T10:06:57;7.77;;;6.97;;
4638;SDS011;2332;38.646;-9.154;2022-10-14T10:09:26;9.10;;;7.37;;
4638;SDS011;2332;38.646;-9.154;2022-10-14T10:11:52;9.63;;;7.10;;
4638;SDS011;2332;38.646;-9.154;2022-10-14T10:14:23;6.93;;;6.33;;
4638;SDS011;2332;38.646;-9.154;2022-10-14T10:19:32;7.00;;;6.30;;
4638;SDS011;2332;38.646;-9.154;2022-10-14T10:24:47;5.50;;;5.10;;
4638;SDS011;2332;38.646;-9.154;2022-10-14T10:27:22;9.73;;;5.67;;
4638;SDS011;2332;38.646;-9.154;2022-10-14T10:29:50;6.10;;;5.60;;
4638;SDS011;2332;38.646;-9.154;2022-10-14T10:32:19;5.60;;;5.10;;
4638;SDS011;2332;38.646;-9.154;2022-10-14T10:35:03;5.67;;;4.70;;
4638;SDS011;2332;38.646;-9.154;2022-10-14T10:37:33;6.63;;;6.03;;
4638;SDS011;2332;38.646;-9.154;2022-10-14T10:48:08;5.90;;;5.50;;
4638;SDS011;2332;38.646;-9.154;2022-10-14T10:51:04;5.37;;;4.87;;
4638;SDS011;2332;38.646;-9.154;2022-10-14T10:56:37;4.93;;;4.53;;
4638;SDS011;2332;38.646;-9.154;2022-10-14T10:59:13;5.00;;;4.50;;
4638;SDS011;2332;38.646;-9.154;2022-10-14T11:02:09;4.30;;;4.00;;
4638;SDS011;2332;38.646;-9.154;2022-10-14T11:07:57;4.00;;;3.67;;
4638;SDS011;2332;38.646;-9.154;2022-10-14T11:11:05;4.27;;;3.90;;
4638;SDS011;2332;38.646;-9.154;2022-10-14T11:14:10;3.80;;;3.50;;
4638;SDS011;2332;38.646;-9.154;2022-10-14T11:19:29;5.07;;;4.67;;
4638;SDS011;2332;38.646;-9.154;2022-10-14T11:22:07;3.93;;;3.73;;
4638;SDS011;2332;38.646;-9.154;2022-10-14T11:24:46;5.00;;;4.73;;
4638;SDS011;2332;38.646;-9.154;2022-10-14T11:41:29;6.00;;;4.33;;
4638;SDS011;2332;38.646;-9.154;2022-10-14T11:46:36;4.70;;;4.30;;
4638;SDS011;2332;38.646;-9.154;2022-10-14T11:49:15;5.20;;;4.80;;
4638;SDS011;2332;38.646;-9.154;2022-10-14T11:52:13;5.23;;;4.70;;
4638;SDS011;2332;38.646;-9.154;2022-10-14T12:13:32;6.40;;;4.77;;
4638;SDS011;2332;38.646;-9.154;2022-10-14T12:16:00;4.60;;;4.30;;
4638;SDS011;2332;38.646;-9.154;2022-10-14T12:18:29;5.27;;;4.43;;
4638;SDS011;2332;38.646;-9.154;2022-10-14T12:23:49;5.67;;;4.13;;
4638;SDS011;2332;38.646;-9.154;2022-10-14T12:28:47;4.50;;;4.10;;
4638;SDS011;2332;38.646;-9.154;2022-10-14T12:31:21;4.40;;;4.20;;
4638;SDS011;2332;38.646;-9.154;2022-10-14T12:36:40;4.57;;;4.17;;
4638;SDS011;2332;38.646;-9.154;2022-10-14T12:41:51;6.40;;;5.03;;
4638;SDS011;2332;38.646;-9.154;2022-10-14T12:44:39;5.50;;;4.80;;
4638;SDS011;2332;38.646;-9.154;2022-10-14T12:47:51;9.70;;;5.43;;
4638;SDS011;2332;38.646;-9.154;2022-10-14T12:50:41;10.30;;;4.80;;
4638;SDS011;2332;38.646;-9.154;2022-10-14T12:52:59;4.73;;;4.30;;
4638;SDS011;2332;38.646;-9.154;2022-10-14T12:55:27;6.67;;;5.10;;
4638;SDS011;2332;38.646;-9.154;2022-10-14T12:57:54;5.33;;;4.93;;
4638;SDS011;2332;38.646;-9.154;2022-10-14T13:02:47;4.80;;;4.50;;
4638;SDS011;2332;38.646;-9.154;2022-10-14T13:10:45;3.80;;;3.60;;
4638;SDS011;2332;38.646;-9.154;2022-10-14T13:16:07;4.33;;;3.93;;
4638;SDS011;2332;38.646;-9.154;2022-10-14T13:21:03;5.20;;;4.40;;
4638;SDS011;2332;38.646;-9.154;2022-10-14T13:29:25;4.00;;;3.70;;
4638;SDS011;2332;38.646;-9.154;2022-10-14T13:34:11;3.60;;;3.30;;
4638;SDS011;2332;38.646;-9.154;2022-10-14T13:39:35;4.40;;;3.40;;
4638;SDS011;2332;38.646;-9.154;2022-10-14T13:42:01;3.90;;;3.60;;
4638;SDS011;2332;38.646;-9.154;2022-10-14T13:44:27;6.23;;;3.60;;
4638;SDS011;2332;38.646;-9.154;2022-10-14T13:46:52;4.00;;;3.70;;
4638;SDS011;2332;38.646;-9.154;2022-10-14T13:49:19;3.63;;;3.40;;
4638;SDS011;2332;38.646;-9.154;2022-10-14T13:51:53;4.43;;;3.67;;
4638;SDS011;2332;38.646;-9.154;2022-10-14T13:54:26;4.53;;;3.10;;
4638;SDS011;2332;38.646;-9.154;2022-10-14T13:59:28;6.00;;;3.40;;
4638;SDS011;2332;38.646;-9.154;2022-10-14T14:01:58;3.53;;;3.20;;
4638;SDS011;2332;38.646;-9.154;2022-10-14T14:04:27;5.77;;;3.50;;
4638;SDS011;2332;38.646;-9.154;2022-10-14T14:06:55;4.77;;;3.33;;
4638;SDS011;2332;38.646;-9.154;2022-10-14T14:09:21;3.57;;;3.37;;
4638;SDS011;2332;38.646;-9.154;2022-10-14T14:11:50;4.80;;;3.93;;
4638;SDS011;2332;38.646;-9.154;2022-10-14T14:14:19;4.50;;;4.10;;
4638;SDS011;2332;38.646;-9.154;2022-10-14T14:19:31;5.60;;;3.07;;
4638;SDS011;2332;38.646;-9.154;2022-10-14T14:24:31;5.43;;;3.50;;
4638;SDS011;2332;38.646;-9.154;2022-10-14T14:26:58;5.27;;;3.53;;
4638;SDS011;2332;38.646;-9.154;2022-10-14T14:29:25;3.80;;;3.60;;
4638;SDS011;2332;38.646;-9.154;2022-10-14T14:31:52;3.30;;;3.00;;
4638;SDS011;2332;38.646;-9.154;2022-10-14T14:34:18;4.13;;;3.63;;
4638;SDS011;2332;38.646;-9.154;2022-10-14T14:36:46;5.57;;;3.60;;
4638;SDS011;2332;38.646;-9.154;2022-10-14T14:39:23;3.50;;;3.30;;
4638;SDS011;2332;38.646;-9.154;2022-10-14T14:41:50;3.57;;;3.27;;
4638;SDS011;2332;38.646;-9.154;2022-10-14T14:44:18;9.40;;;4.30;;
4638;SDS011;2332;38.646;-9.154;2022-10-14T14:46:47;4.63;;;2.77;;
4638;SDS011;2332;38.646;-9.154;2022-10-14T14:49:14;4.10;;;3.67;;
4638;SDS011;2332;38.646;-9.154;2022-10-14T14:51:41;4.20;;;3.50;;
4638;SDS011;2332;38.646;-9.154;2022-10-14T14:54:17;3.43;;;3.10;;
4638;SDS011;2332;38.646;-9.154;2022-10-14T14:59:29;4.73;;;3.30;;
4638;SDS011;2332;38.646;-9.154;2022-10-14T15:02:02;4.87;;;3.50;;
4638;SDS011;2332;38.646;-9.154;2022-10-14T15:04:34;7.40;;;3.60;;
4638;SDS011;2332;38.646;-9.154;2022-10-14T15:09:52;4.53;;;3.30;;
4638;SDS011;2332;38.646;-9.154;2022-10-14T15:12:27;5.40;;;3.37;;
4638;SDS011;2332;38.646;-9.154;2022-10-14T15:15:01;4.70;;;3.90;;
4638;SDS011;2332;38.646;-9.154;2022-10-14T15:17:38;4.07;;;3.67;;
4638;SDS011;2332;38.646;-9.154;2022-10-14T15:22:52;4.97;;;4.57;;
4638;SDS011;2332;38.646;-9.154;2022-10-14T15:27:53;13.20;;;4.40;;
4638;SDS011;2332;38.646;-9.154;2022-10-14T15:33:25;7.73;;;3.97;;
4638;SDS011;2332;38.646;-9.154;2022-10-14T15:35:55;6.20;;;4.23;;
4638;SDS011;2332;38.646;-9.154;2022-10-14T15:38:25;12.90;;;4.60;;
4638;SDS011;2332;38.646;-9.154;2022-10-14T15:40:51;6.97;;;4.17;;
4638;SDS011;2332;38.646;-9.154;2022-10-14T15:43:18;9.40;;;4.00;;
4638;SDS011;2332;38.646;-9.154;2022-10-14T15:45:52;4.70;;;3.80;;
4638;SDS011;2332;38.646;-9.154;2022-10-14T15:48:47;5.03;;;3.60;;
4638;SDS011;2332;38.646;-9.154;2022-10-14T15:51:14;11.70;;;3.80;;
4638;SDS011;2332;38.646;-9.154;2022-10-14T15:53:41;6.23;;;4.20;;
4638;SDS011;2332;38.646;-9.154;2022-10-14T15:56:06;5.37;;;3.30;;
4638;SDS011;2332;38.646;-9.154;2022-10-14T15:58:34;7.33;;;3.07;;
4638;SDS011;2332;38.646;-9.154;2022-10-14T16:01:03;5.90;;;3.27;;
4638;SDS011;2332;38.646;-9.154;2022-10-14T16:03:30;3.80;;;3.27;;
4638;SDS011;2332;38.646;-9.154;2022-10-14T16:05:56;6.60;;;3.47;;
4638;SDS011;2332;38.646;-9.154;2022-10-14T16:08:22;9.40;;;3.50;;
4638;SDS011;2332;38.646;-9.154;2022-10-14T16:10:48;3.60;;;3.10;;
4638;SDS011;2332;38.646;-9.154;2022-10-14T16:13:14;4.93;;;3.07;;
4638;SDS011;2332;38.646;-9.154;2022-10-14T16:18:22;5.00;;;2.70;;
4638;SDS011;2332;38.646;-9.154;2022-10-14T16:20:49;5.20;;;2.90;;
4638;SDS011;2332;38.646;-9.154;2022-10-14T16:23:18;4.40;;;2.53;;
4638;SDS011;2332;38.646;-9.154;2022-10-14T16:25:46;4.33;;;2.13;;
4638;SDS011;2332;38.646;-9.154;2022-10-14T16:28:13;3.50;;;2.50;;
4638;SDS011;2332;38.646;-9.154;2022-10-14T16:30:51;3.50;;;2.43;;
4638;SDS011;2332;38.646;-9.154;2022-10-14T16:33:20;2.87;;;2.43;;
4638;SDS011;2332;38.646;-9.154;2022-10-14T16:35:49;7.07;;;2.43;;
4638;SDS011;2332;38.646;-9.154;2022-10-14T16:38:19;3.50;;;2.23;;
4638;SDS011;2332;38.646;-9.154;2022-10-14T16:40:52;2.47;;;2.37;;
4638;SDS011;2332;38.646;-9.154;2022-10-14T16:43:21;5.97;;;2.27;;
4638;SDS011;2332;38.646;-9.154;2022-10-14T16:45:47;4.40;;;2.30;;
4638;SDS011;2332;38.646;-9.154;2022-10-14T16:48:13;3.17;;;2.10;;
4638;SDS011;2332;38.646;-9.154;2022-10-14T16:50:39;5.87;;;2.13;;
4638;SDS011;2332;38.646;-9.154;2022-10-14T16:53:05;2.10;;;2.00;;
4638;SDS011;2332;38.646;-9.154;2022-10-14T16:55:49;5.03;;;1.87;;
4638;SDS011;2332;38.646;-9.154;2022-10-14T16:58:15;3.73;;;2.43;;
4638;SDS011;2332;38.646;-9.154;2022-10-14T17:00:40;4.07;;;2.07;;
4638;SDS011;2332;38.646;-9.154;2022-10-14T17:03:06;3.63;;;2.03;;
4638;SDS011;2332;38.646;-9.154;2022-10-14T17:05:31;4.57;;;2.43;;
4638;SDS011;2332;38.646;-9.154;2022-10-14T17:07:57;5.47;;;2.00;;
4638;SDS011;2332;38.646;-9.154;2022-10-14T17:10:22;2.20;;;1.90;;
4638;SDS011;2332;38.646;-9.154;2022-10-14T17:12:49;3.73;;;2.13;;
4638;SDS011;2332;38.646;-9.154;2022-10-14T17:15:14;4.57;;;1.80;;
4638;SDS011;2332;38.646;-9.154;2022-10-14T17:17:40;3.77;;;1.63;;
4638;SDS011;2332;38.646;-9.154;2022-10-14T17:20:06;6.00;;;2.00;;
4638;SDS011;2332;38.646;-9.154;2022-10-14T17:22:33;6.13;;;1.80;;
4638;SDS011;2332;38.646;-9.154;2022-10-14T17:24:59;7.17;;;2.13;;
4638;SDS011;2332;38.646;-9.154;2022-10-14T17:27:25;2.53;;;2.23;;
4638;SDS011;2332;38.646;-9.154;2022-10-14T17:29:50;3.73;;;2.13;;
4638;SDS011;2332;38.646;-9.154;2022-10-14T17:32:16;3.33;;;2.20;;
4638;SDS011;2332;38.646;-9.154;2022-10-14T17:34:42;3.10;;;2.33;;
4638;SDS011;2332;38.646;-9.154;2022-10-14T17:37:08;6.37;;;2.77;;
4638;SDS011;2332;38.646;-9.154;2022-10-14T17:39:33;5.57;;;2.53;;
4638;SDS011;2332;38.646;-9.154;2022-10-14T17:41:59;3.83;;;2.27;;